sensor_id;sensor_type;location;lat;lon;timestamp;P1;durP1;ratioP1;P2;durP2;ratioP2
16393;SDS011;8306;51.128;4.476;2023-03-29T00:00:28;2.43;;;1.93;;
16393;SDS011;8306;51.128;4.476;2023-03-29T00:02:55;2.90;;;2.50;;
16393;SDS011;8306;51.128;4.476;2023-03-29T00:05:21;3.33;;;2.43;;
16393;SDS011;8306;51.128;4.476;2023-03-29T00:07:48;3.47;;;2.40;;
16393;SDS011;8306;51.128;4.476;2023-03-29T00:10:17;2.37;;;1.70;;
16393;SDS011;8306;51.128;4.476;2023-03-29T00:12:44;2.50;;;1.50;;
16393;SDS011;8306;51.128;4.476;2023-03-29T00:15:11;2.80;;;2.60;;
16393;SDS011;8306;51.128;4.476;2023-03-29T00:17:37;3.43;;;2.80;;
16393;SDS011;8306;51.128;4.476;2023-03-29T00:20:04;2.57;;;2.37;;
16393;SDS011;8306;51.128;4.476;2023-03-29T00:22:33;2.53;;;1.93;;
16393;SDS011;8306;51.128;4.476;2023-03-29T00:24:59;3.07;;;2.03;;
16393;SDS011;8306;51.128;4.476;2023-03-29T00:27:26;4.93;;;4.00;;
16393;SDS011;8306;51.128;4.476;2023-03-29T00:29:52;4.30;;;3.60;;
16393;SDS011;8306;51.128;4.476;2023-03-29T00:32:19;4.57;;;3.93;;
16393;SDS011;8306;51.128;4.476;2023-03-29T00:34:45;3.27;;;2.97;;
16393;SDS011;8306;51.128;4.476;2023-03-29T00:37:12;4.00;;;3.60;;
16393;SDS011;8306;51.128;4.476;2023-03-29T00:39:38;5.13;;;3.80;;
16393;SDS011;8306;51.128;4.476;2023-03-29T00:42:04;2.70;;;2.50;;
16393;SDS011;8306;51.128;4.476;2023-03-29T00:47:23;2.60;;;2.20;;
16393;SDS011;8306;51.128;4.476;2023-03-29T00:49:46;3.43;;;2.97;;
16393;SDS011;8306;51.128;4.476;2023-03-29T00:52:13;2.53;;;2.00;;
16393;SDS011;8306;51.128;4.476;2023-03-29T00:54:39;4.13;;;3.40;;
16393;SDS011;8306;51.128;4.476;2023-03-29T00:57:05;3.40;;;2.87;;
16393;SDS011;8306;51.128;4.476;2023-03-29T00:59:31;5.13;;;3.80;;
16393;SDS011;8306;51.128;4.476;2023-03-29T01:02:07;5.33;;;3.93;;
16393;SDS011;8306;51.128;4.476;2023-03-29T01:07:16;4.93;;;4.20;;
16393;SDS011;8306;51.128;4.476;2023-03-29T01:09:49;2.43;;;2.23;;
16393;SDS011;8306;51.128;4.476;2023-03-29T01:12:14;3.33;;;2.10;;
16393;SDS011;8306;51.128;4.476;2023-03-29T01:14:44;2.73;;;2.20;;
16393;SDS011;8306;51.128;4.476;2023-03-29T01:17:09;1.93;;;1.80;;
16393;SDS011;8306;51.128;4.476;2023-03-29T01:19:37;3.67;;;2.40;;
16393;SDS011;8306;51.128;4.476;2023-03-29T01:22:07;4.03;;;3.53;;
16393;SDS011;8306;51.128;4.476;2023-03-29T01:27:18;2.73;;;2.40;;
16393;SDS011;8306;51.128;4.476;2023-03-29T01:29:35;2.43;;;2.20;;
16393;SDS011;8306;51.128;4.476;2023-03-29T01:32:04;3.40;;;2.60;;
16393;SDS011;8306;51.128;4.476;2023-03-29T01:39:51;3.40;;;2.50;;
16393;SDS011;8306;51.128;4.476;2023-03-29T01:44:58;5.63;;;2.20;;
16393;SDS011;8306;51.128;4.476;2023-03-29T01:51:28;4.37;;;2.40;;
16393;SDS011;8306;51.128;4.476;2023-03-29T01:53:08;3.17;;;1.80;;
16393;SDS011;8306;51.128;4.476;2023-03-29T01:55:34;2.33;;;1.80;;
16393;SDS011;8306;51.128;4.476;2023-03-29T01:58:00;3.27;;;2.03;;
16393;SDS011;8306;51.128;4.476;2023-03-29T02:00:26;2.37;;;2.00;;
16393;SDS011;8306;51.128;4.476;2023-03-29T02:02:53;2.10;;;1.90;;
16393;SDS011;8306;51.128;4.476;2023-03-29T02:05:19;3.17;;;1.80;;
16393;SDS011;8306;51.128;4.476;2023-03-29T02:07:45;2.70;;;1.80;;
16393;SDS011;8306;51.128;4.476;2023-03-29T02:10:12;3.00;;;1.90;;
16393;SDS011;8306;51.128;4.476;2023-03-29T02:12:38;3.87;;;2.03;;
16393;SDS011;8306;51.128;4.476;2023-03-29T02:15:09;2.40;;;2.13;;
16393;SDS011;8306;51.128;4.476;2023-03-29T02:17:32;2.40;;;1.97;;
16393;SDS011;8306;51.128;4.476;2023-03-29T02:20:00;2.17;;;1.93;;
16393;SDS011;8306;51.128;4.476;2023-03-29T02:22:29;2.70;;;1.93;;
16393;SDS011;8306;51.128;4.476;2023-03-29T02:24:54;2.60;;;1.90;;
16393;SDS011;8306;51.128;4.476;2023-03-29T02:27:20;2.50;;;2.17;;
16393;SDS011;8306;51.128;4.476;2023-03-29T02:29:47;2.57;;;1.70;;
16393;SDS011;8306;51.128;4.476;2023-03-29T02:32:18;2.93;;;2.03;;
16393;SDS011;8306;51.128;4.476;2023-03-29T02:34:45;2.57;;;2.10;;
16393;SDS011;8306;51.128;4.476;2023-03-29T02:37:13;2.40;;;1.97;;
16393;SDS011;8306;51.128;4.476;2023-03-29T02:39:38;3.17;;;2.03;;
16393;SDS011;8306;51.128;4.476;2023-03-29T02:42:05;2.93;;;2.20;;
16393;SDS011;8306;51.128;4.476;2023-03-29T02:44:32;3.57;;;1.77;;
16393;SDS011;8306;51.128;4.476;2023-03-29T02:47:02;2.23;;;2.00;;
16393;SDS011;8306;51.128;4.476;2023-03-29T02:49:27;2.00;;;1.80;;
16393;SDS011;8306;51.128;4.476;2023-03-29T02:51:54;2.27;;;2.00;;
16393;SDS011;8306;51.128;4.476;2023-03-29T02:54:23;3.13;;;2.20;;
16393;SDS011;8306;51.128;4.476;2023-03-29T02:56:54;2.37;;;2.17;;
16393;SDS011;8306;51.128;4.476;2023-03-29T02:59:21;3.67;;;2.07;;
16393;SDS011;8306;51.128;4.476;2023-03-29T03:01:48;2.00;;;1.87;;
16393;SDS011;8306;51.128;4.476;2023-03-29T03:04:15;2.33;;;1.90;;
16393;SDS011;8306;51.128;4.476;2023-03-29T03:06:41;2.53;;;1.97;;
16393;SDS011;8306;51.128;4.476;2023-03-29T03:09:07;2.53;;;1.80;;
16393;SDS011;8306;51.128;4.476;2023-03-29T03:11:34;3.47;;;2.10;;
16393;SDS011;8306;51.128;4.476;2023-03-29T03:14:00;2.10;;;1.90;;
16393;SDS011;8306;51.128;4.476;2023-03-29T03:16:27;3.33;;;2.00;;
16393;SDS011;8306;51.128;4.476;2023-03-29T03:18:53;3.20;;;2.30;;
16393;SDS011;8306;51.128;4.476;2023-03-29T03:21:20;2.30;;;1.97;;
16393;SDS011;8306;51.128;4.476;2023-03-29T03:23:46;2.80;;;1.97;;
16393;SDS011;8306;51.128;4.476;2023-03-29T03:26:13;3.90;;;2.00;;
16393;SDS011;8306;51.128;4.476;2023-03-29T03:28:39;2.93;;;2.10;;
16393;SDS011;8306;51.128;4.476;2023-03-29T03:31:06;2.90;;;2.20;;
16393;SDS011;8306;51.128;4.476;2023-03-29T03:33:32;3.03;;;2.03;;
16393;SDS011;8306;51.128;4.476;2023-03-29T03:35:59;5.07;;;2.23;;
16393;SDS011;8306;51.128;4.476;2023-03-29T03:38:28;2.33;;;2.00;;
16393;SDS011;8306;51.128;4.476;2023-03-29T03:40:54;3.63;;;2.43;;
16393;SDS011;8306;51.128;4.476;2023-03-29T03:43:21;3.03;;;2.20;;
16393;SDS011;8306;51.128;4.476;2023-03-29T03:45:47;4.30;;;2.07;;
16393;SDS011;8306;51.128;4.476;2023-03-29T03:48:14;2.67;;;2.23;;
16393;SDS011;8306;51.128;4.476;2023-03-29T03:50:40;3.53;;;2.60;;
16393;SDS011;8306;51.128;4.476;2023-03-29T03:53:07;2.53;;;2.23;;
16393;SDS011;8306;51.128;4.476;2023-03-29T03:55:33;3.50;;;2.40;;
16393;SDS011;8306;51.128;4.476;2023-03-29T03:58:00;3.00;;;2.47;;
16393;SDS011;8306;51.128;4.476;2023-03-29T04:00:26;4.70;;;2.60;;
16393;SDS011;8306;51.128;4.476;2023-03-29T04:02:53;3.43;;;2.33;;
16393;SDS011;8306;51.128;4.476;2023-03-29T04:05:19;3.33;;;2.40;;
16393;SDS011;8306;51.128;4.476;2023-03-29T04:07:46;4.47;;;2.70;;
16393;SDS011;8306;51.128;4.476;2023-03-29T04:10:12;3.73;;;2.57;;
16393;SDS011;8306;51.128;4.476;2023-03-29T04:12:38;2.80;;;2.50;;
16393;SDS011;8306;51.128;4.476;2023-03-29T04:15:05;3.07;;;2.60;;
16393;SDS011;8306;51.128;4.476;2023-03-29T04:17:31;3.03;;;2.70;;
16393;SDS011;8306;51.128;4.476;2023-03-29T04:19:58;3.33;;;2.57;;
16393;SDS011;8306;51.128;4.476;2023-03-29T04:22:24;2.90;;;2.63;;
16393;SDS011;8306;51.128;4.476;2023-03-29T04:24:51;2.93;;;2.43;;
16393;SDS011;8306;51.128;4.476;2023-03-29T04:27:17;3.47;;;2.90;;
16393;SDS011;8306;51.128;4.476;2023-03-29T04:29:44;3.13;;;2.80;;
16393;SDS011;8306;51.128;4.476;2023-03-29T04:32:11;3.03;;;2.73;;
16393;SDS011;8306;51.128;4.476;2023-03-29T04:34:37;4.07;;;3.07;;
16393;SDS011;8306;51.128;4.476;2023-03-29T04:37:03;4.30;;;3.00;;
16393;SDS011;8306;51.128;4.476;2023-03-29T04:39:33;3.97;;;2.90;;
16393;SDS011;8306;51.128;4.476;2023-03-29T04:41:59;3.00;;;2.70;;
16393;SDS011;8306;51.128;4.476;2023-03-29T04:44:26;4.77;;;3.10;;
16393;SDS011;8306;51.128;4.476;2023-03-29T04:46:52;3.20;;;2.90;;
16393;SDS011;8306;51.128;4.476;2023-03-29T04:49:19;3.50;;;2.90;;
16393;SDS011;8306;51.128;4.476;2023-03-29T04:51:45;3.73;;;3.30;;
16393;SDS011;8306;51.128;4.476;2023-03-29T04:54:12;4.97;;;3.37;;
16393;SDS011;8306;51.128;4.476;2023-03-29T04:56:38;4.40;;;2.93;;
16393;SDS011;8306;51.128;4.476;2023-03-29T04:59:04;4.10;;;2.83;;
16393;SDS011;8306;51.128;4.476;2023-03-29T05:01:31;4.20;;;2.73;;
16393;SDS011;8306;51.128;4.476;2023-03-29T05:03:57;5.10;;;3.03;;
16393;SDS011;8306;51.128;4.476;2023-03-29T05:06:24;4.97;;;3.00;;
16393;SDS011;8306;51.128;4.476;2023-03-29T05:08:50;3.40;;;2.70;;
16393;SDS011;8306;51.128;4.476;2023-03-29T05:11:17;2.60;;;2.40;;
16393;SDS011;8306;51.128;4.476;2023-03-29T05:13:43;3.30;;;2.63;;
16393;SDS011;8306;51.128;4.476;2023-03-29T05:16:10;3.40;;;2.60;;
16393;SDS011;8306;51.128;4.476;2023-03-29T05:18:36;3.37;;;2.57;;
16393;SDS011;8306;51.128;4.476;2023-03-29T05:21:03;3.47;;;2.60;;
16393;SDS011;8306;51.128;4.476;2023-03-29T05:23:29;3.27;;;2.67;;
16393;SDS011;8306;51.128;4.476;2023-03-29T05:25:56;3.67;;;2.70;;
16393;SDS011;8306;51.128;4.476;2023-03-29T05:28:22;2.60;;;2.40;;
16393;SDS011;8306;51.128;4.476;2023-03-29T05:30:57;3.63;;;3.10;;
16393;SDS011;8306;51.128;4.476;2023-03-29T05:33:15;5.67;;;3.10;;
16393;SDS011;8306;51.128;4.476;2023-03-29T05:35:42;4.30;;;3.90;;
16393;SDS011;8306;51.128;4.476;2023-03-29T05:38:08;3.53;;;2.80;;
16393;SDS011;8306;51.128;4.476;2023-03-29T05:40:35;3.10;;;2.77;;
16393;SDS011;8306;51.128;4.476;2023-03-29T05:43:01;4.23;;;3.10;;
16393;SDS011;8306;51.128;4.476;2023-03-29T05:45:28;3.30;;;3.00;;
16393;SDS011;8306;51.128;4.476;2023-03-29T05:47:54;3.83;;;2.70;;
16393;SDS011;8306;51.128;4.476;2023-03-29T05:50:20;3.37;;;2.60;;
16393;SDS011;8306;51.128;4.476;2023-03-29T05:52:47;3.60;;;2.43;;
16393;SDS011;8306;51.128;4.476;2023-03-29T05:55:13;3.27;;;2.50;;
16393;SDS011;8306;51.128;4.476;2023-03-29T05:57:40;3.33;;;2.60;;
16393;SDS011;8306;51.128;4.476;2023-03-29T06:00:07;2.80;;;2.30;;
16393;SDS011;8306;51.128;4.476;2023-03-29T06:02:36;3.47;;;2.23;;
16393;SDS011;8306;51.128;4.476;2023-03-29T06:05:02;4.37;;;2.53;;
16393;SDS011;8306;51.128;4.476;2023-03-29T06:07:29;3.33;;;2.70;;
16393;SDS011;8306;51.128;4.476;2023-03-29T06:09:55;2.63;;;2.43;;
16393;SDS011;8306;51.128;4.476;2023-03-29T06:12:22;2.80;;;2.60;;
16393;SDS011;8306;51.128;4.476;2023-03-29T06:14:48;2.90;;;2.60;;
16393;SDS011;8306;51.128;4.476;2023-03-29T06:17:15;4.90;;;2.60;;
16393;SDS011;8306;51.128;4.476;2023-03-29T06:19:41;4.87;;;3.10;;
16393;SDS011;8306;51.128;4.476;2023-03-29T06:22:08;3.47;;;2.70;;
16393;SDS011;8306;51.128;4.476;2023-03-29T06:24:34;3.23;;;2.73;;
16393;SDS011;8306;51.128;4.476;2023-03-29T06:27:01;3.43;;;2.70;;
16393;SDS011;8306;51.128;4.476;2023-03-29T06:29:27;3.40;;;3.10;;
16393;SDS011;8306;51.128;4.476;2023-03-29T06:31:54;3.37;;;2.97;;
16393;SDS011;8306;51.128;4.476;2023-03-29T06:34:20;2.93;;;2.70;;
16393;SDS011;8306;51.128;4.476;2023-03-29T06:36:47;3.33;;;2.80;;
16393;SDS011;8306;51.128;4.476;2023-03-29T06:39:13;3.33;;;2.90;;
16393;SDS011;8306;51.128;4.476;2023-03-29T06:41:40;4.00;;;3.00;;
16393;SDS011;8306;51.128;4.476;2023-03-29T06:44:06;4.40;;;3.33;;
16393;SDS011;8306;51.128;4.476;2023-03-29T06:46:33;3.27;;;2.70;;
16393;SDS011;8306;51.128;4.476;2023-03-29T06:48:59;3.20;;;2.90;;
16393;SDS011;8306;51.128;4.476;2023-03-29T06:51:25;3.90;;;3.10;;
16393;SDS011;8306;51.128;4.476;2023-03-29T06:53:52;3.63;;;2.90;;
16393;SDS011;8306;51.128;4.476;2023-03-29T06:56:18;5.17;;;3.10;;
16393;SDS011;8306;51.128;4.476;2023-03-29T06:58:45;4.97;;;3.20;;
16393;SDS011;8306;51.128;4.476;2023-03-29T07:01:11;4.00;;;2.90;;
16393;SDS011;8306;51.128;4.476;2023-03-29T07:03:38;3.13;;;2.70;;
16393;SDS011;8306;51.128;4.476;2023-03-29T07:06:04;3.60;;;2.57;;
16393;SDS011;8306;51.128;4.476;2023-03-29T07:08:31;3.13;;;2.93;;
16393;SDS011;8306;51.128;4.476;2023-03-29T07:10:57;4.13;;;3.13;;
16393;SDS011;8306;51.128;4.476;2023-03-29T07:13:24;3.53;;;3.10;;
16393;SDS011;8306;51.128;4.476;2023-03-29T07:15:50;3.73;;;3.13;;
16393;SDS011;8306;51.128;4.476;2023-03-29T07:18:17;4.00;;;2.97;;
16393;SDS011;8306;51.128;4.476;2023-03-29T07:20:43;3.73;;;3.37;;
16393;SDS011;8306;51.128;4.476;2023-03-29T07:23:10;3.30;;;3.00;;
16393;SDS011;8306;51.128;4.476;2023-03-29T07:25:36;4.13;;;3.23;;
16393;SDS011;8306;51.128;4.476;2023-03-29T07:28:03;4.77;;;3.10;;
16393;SDS011;8306;51.128;4.476;2023-03-29T07:30:29;4.00;;;3.10;;
16393;SDS011;8306;51.128;4.476;2023-03-29T07:32:56;3.90;;;3.40;;
16393;SDS011;8306;51.128;4.476;2023-03-29T07:35:22;4.27;;;3.33;;
16393;SDS011;8306;51.128;4.476;2023-03-29T07:37:49;4.40;;;3.63;;
16393;SDS011;8306;51.128;4.476;2023-03-29T07:40:16;4.03;;;3.57;;
16393;SDS011;8306;51.128;4.476;2023-03-29T07:42:44;5.47;;;3.53;;
16393;SDS011;8306;51.128;4.476;2023-03-29T07:45:12;3.93;;;3.53;;
16393;SDS011;8306;51.128;4.476;2023-03-29T07:47:37;4.83;;;3.47;;
16393;SDS011;8306;51.128;4.476;2023-03-29T07:50:04;3.87;;;3.30;;
16393;SDS011;8306;51.128;4.476;2023-03-29T07:52:30;4.23;;;3.80;;
16393;SDS011;8306;51.128;4.476;2023-03-29T07:54:57;3.90;;;3.50;;
16393;SDS011;8306;51.128;4.476;2023-03-29T07:57:24;5.80;;;3.73;;
16393;SDS011;8306;51.128;4.476;2023-03-29T07:59:50;4.97;;;3.43;;
16393;SDS011;8306;51.128;4.476;2023-03-29T08:02:16;4.67;;;4.00;;
16393;SDS011;8306;51.128;4.476;2023-03-29T08:04:43;5.97;;;3.87;;
16393;SDS011;8306;51.128;4.476;2023-03-29T08:07:09;4.80;;;4.17;;
16393;SDS011;8306;51.128;4.476;2023-03-29T08:09:36;8.53;;;4.53;;
16393;SDS011;8306;51.128;4.476;2023-03-29T08:12:02;5.10;;;3.97;;
16393;SDS011;8306;51.128;4.476;2023-03-29T08:14:29;4.40;;;3.97;;
16393;SDS011;8306;51.128;4.476;2023-03-29T08:16:55;4.43;;;4.03;;
16393;SDS011;8306;51.128;4.476;2023-03-29T08:19:22;5.07;;;4.67;;
16393;SDS011;8306;51.128;4.476;2023-03-29T08:21:48;5.43;;;4.30;;
16393;SDS011;8306;51.128;4.476;2023-03-29T08:24:15;7.23;;;4.53;;
16393;SDS011;8306;51.128;4.476;2023-03-29T08:26:41;5.73;;;4.30;;
16393;SDS011;8306;51.128;4.476;2023-03-29T08:29:08;6.30;;;4.93;;
16393;SDS011;8306;51.128;4.476;2023-03-29T08:31:34;4.83;;;4.33;;
16393;SDS011;8306;51.128;4.476;2023-03-29T08:34:00;4.87;;;4.37;;
16393;SDS011;8306;51.128;4.476;2023-03-29T08:36:27;4.67;;;4.27;;
16393;SDS011;8306;51.128;4.476;2023-03-29T08:38:53;5.07;;;3.90;;
16393;SDS011;8306;51.128;4.476;2023-03-29T08:46:47;5.03;;;4.03;;
16393;SDS011;8306;51.128;4.476;2023-03-29T08:49:28;6.37;;;4.17;;
16393;SDS011;8306;51.128;4.476;2023-03-29T08:51:55;5.07;;;3.80;;
16393;SDS011;8306;51.128;4.476;2023-03-29T08:54:24;5.33;;;4.00;;
16393;SDS011;8306;51.128;4.476;2023-03-29T08:56:50;4.40;;;4.00;;
16393;SDS011;8306;51.128;4.476;2023-03-29T08:59:21;3.83;;;3.33;;
16393;SDS011;8306;51.128;4.476;2023-03-29T09:01:46;8.17;;;3.97;;
16393;SDS011;8306;51.128;4.476;2023-03-29T09:04:16;5.00;;;3.70;;
16393;SDS011;8306;51.128;4.476;2023-03-29T09:06:39;4.60;;;3.70;;
16393;SDS011;8306;51.128;4.476;2023-03-29T09:09:09;3.93;;;3.50;;
16393;SDS011;8306;51.128;4.476;2023-03-29T09:11:38;5.17;;;3.80;;
16393;SDS011;8306;51.128;4.476;2023-03-29T09:14:04;4.57;;;3.43;;
16393;SDS011;8306;51.128;4.476;2023-03-29T09:19:21;4.40;;;4.00;;
16393;SDS011;8306;51.128;4.476;2023-03-29T09:22:16;3.97;;;3.57;;
16393;SDS011;8306;51.128;4.476;2023-03-29T09:24:42;3.83;;;3.50;;
16393;SDS011;8306;51.128;4.476;2023-03-29T09:27:17;3.63;;;3.33;;
16393;SDS011;8306;51.128;4.476;2023-03-29T09:32:45;4.37;;;3.23;;
16393;SDS011;8306;51.128;4.476;2023-03-29T09:35:23;4.03;;;3.50;;
16393;SDS011;8306;51.128;4.476;2023-03-29T09:37:49;3.83;;;3.43;;
16393;SDS011;8306;51.128;4.476;2023-03-29T09:40:17;3.87;;;3.47;;
16393;SDS011;8306;51.128;4.476;2023-03-29T09:42:48;3.83;;;3.40;;
16393;SDS011;8306;51.128;4.476;2023-03-29T09:45:14;3.93;;;3.13;;
16393;SDS011;8306;51.128;4.476;2023-03-29T09:47:43;7.20;;;3.33;;
16393;SDS011;8306;51.128;4.476;2023-03-29T09:50:17;4.80;;;3.30;;
16393;SDS011;8306;51.128;4.476;2023-03-29T09:52:42;3.73;;;3.17;;
16393;SDS011;8306;51.128;4.476;2023-03-29T09:55:12;4.50;;;3.37;;
16393;SDS011;8306;51.128;4.476;2023-03-29T09:57:35;4.40;;;3.60;;
16393;SDS011;8306;51.128;4.476;2023-03-29T10:00:02;4.93;;;3.60;;
16393;SDS011;8306;51.128;4.476;2023-03-29T10:02:28;3.53;;;3.13;;
16393;SDS011;8306;51.128;4.476;2023-03-29T10:04:55;3.67;;;3.03;;
16393;SDS011;8306;51.128;4.476;2023-03-29T10:07:21;3.33;;;2.80;;
16393;SDS011;8306;51.128;4.476;2023-03-29T10:09:48;3.27;;;2.90;;
16393;SDS011;8306;51.128;4.476;2023-03-29T10:12:14;3.43;;;3.13;;
16393;SDS011;8306;51.128;4.476;2023-03-29T10:14:44;3.80;;;3.50;;
16393;SDS011;8306;51.128;4.476;2023-03-29T10:17:12;3.20;;;2.90;;
16393;SDS011;8306;51.128;4.476;2023-03-29T10:19:45;3.27;;;2.90;;
16393;SDS011;8306;51.128;4.476;2023-03-29T10:22:06;3.40;;;3.10;;
16393;SDS011;8306;51.128;4.476;2023-03-29T10:24:32;3.60;;;3.30;;
16393;SDS011;8306;51.128;4.476;2023-03-29T10:27:06;3.67;;;3.13;;
16393;SDS011;8306;51.128;4.476;2023-03-29T10:29:33;3.43;;;3.13;;
16393;SDS011;8306;51.128;4.476;2023-03-29T10:31:54;4.07;;;3.20;;
16393;SDS011;8306;51.128;4.476;2023-03-29T10:34:21;3.57;;;3.10;;
16393;SDS011;8306;51.128;4.476;2023-03-29T10:36:52;4.63;;;3.00;;
16393;SDS011;8306;51.128;4.476;2023-03-29T10:39:17;2.80;;;2.60;;
16393;SDS011;8306;51.128;4.476;2023-03-29T10:41:43;3.03;;;2.73;;
16393;SDS011;8306;51.128;4.476;2023-03-29T10:46:51;3.60;;;3.30;;
16393;SDS011;8306;51.128;4.476;2023-03-29T10:49:19;3.30;;;3.00;;
16393;SDS011;8306;51.128;4.476;2023-03-29T10:51:44;3.60;;;3.30;;
16393;SDS011;8306;51.128;4.476;2023-03-29T10:54:12;3.93;;;2.93;;
16393;SDS011;8306;51.128;4.476;2023-03-29T10:56:38;3.27;;;2.80;;
16393;SDS011;8306;51.128;4.476;2023-03-29T10:59:09;2.93;;;2.70;;
16393;SDS011;8306;51.128;4.476;2023-03-29T11:04:41;2.97;;;2.63;;
16393;SDS011;8306;51.128;4.476;2023-03-29T11:12:19;2.77;;;2.57;;
16393;SDS011;8306;51.128;4.476;2023-03-29T11:14:56;2.50;;;2.30;;
16393;SDS011;8306;51.128;4.476;2023-03-29T11:20:18;2.43;;;2.23;;
16393;SDS011;8306;51.128;4.476;2023-03-29T11:28:37;2.27;;;2.00;;
16393;SDS011;8306;51.128;4.476;2023-03-29T11:31:07;2.53;;;2.33;;
16393;SDS011;8306;51.128;4.476;2023-03-29T11:33:36;2.60;;;2.40;;
16393;SDS011;8306;51.128;4.476;2023-03-29T11:38:39;2.53;;;2.33;;
16393;SDS011;8306;51.128;4.476;2023-03-29T11:46:20;2.00;;;1.90;;
16393;SDS011;8306;51.128;4.476;2023-03-29T11:48:48;2.40;;;2.20;;
16393;SDS011;8306;51.128;4.476;2023-03-29T11:51:58;3.30;;;2.00;;
16393;SDS011;8306;51.128;4.476;2023-03-29T11:56:24;2.47;;;2.27;;
16393;SDS011;8306;51.128;4.476;2023-03-29T11:58:52;3.60;;;2.07;;
16393;SDS011;8306;51.128;4.476;2023-03-29T12:01:22;2.20;;;2.00;;
16393;SDS011;8306;51.128;4.476;2023-03-29T12:03:54;3.27;;;1.93;;
16393;SDS011;8306;51.128;4.476;2023-03-29T12:06:20;2.60;;;2.37;;
16393;SDS011;8306;51.128;4.476;2023-03-29T12:08:53;1.90;;;1.80;;
16393;SDS011;8306;51.128;4.476;2023-03-29T12:14:09;2.27;;;2.00;;
16393;SDS011;8306;51.128;4.476;2023-03-29T12:16:35;1.50;;;1.40;;
16393;SDS011;8306;51.128;4.476;2023-03-29T12:21:43;1.77;;;1.67;;
16393;SDS011;8306;51.128;4.476;2023-03-29T12:24:12;1.60;;;1.40;;
16393;SDS011;8306;51.128;4.476;2023-03-29T12:29:38;2.00;;;1.80;;
16393;SDS011;8306;51.128;4.476;2023-03-29T12:40:18;3.00;;;1.80;;
16393;SDS011;8306;51.128;4.476;2023-03-29T12:42:47;2.80;;;1.60;;
16393;SDS011;8306;51.128;4.476;2023-03-29T12:45:17;2.73;;;1.30;;
16393;SDS011;8306;51.128;4.476;2023-03-29T12:47:43;1.60;;;1.50;;
16393;SDS011;8306;51.128;4.476;2023-03-29T12:50:22;1.77;;;1.40;;
16393;SDS011;8306;51.128;4.476;2023-03-29T12:52:47;1.80;;;1.37;;
16393;SDS011;8306;51.128;4.476;2023-03-29T12:55:20;1.90;;;1.70;;
16393;SDS011;8306;51.128;4.476;2023-03-29T12:57:43;1.60;;;1.50;;
16393;SDS011;8306;51.128;4.476;2023-03-29T13:00:19;2.73;;;1.80;;
16393;SDS011;8306;51.128;4.476;2023-03-29T13:02:56;1.73;;;1.50;;
16393;SDS011;8306;51.128;4.476;2023-03-29T13:05:27;1.80;;;1.70;;
16393;SDS011;8306;51.128;4.476;2023-03-29T13:07:53;1.73;;;1.60;;
16393;SDS011;8306;51.128;4.476;2023-03-29T13:12:55;3.00;;;1.37;;
16393;SDS011;8306;51.128;4.476;2023-03-29T13:15:22;1.50;;;1.30;;
16393;SDS011;8306;51.128;4.476;2023-03-29T13:20:38;1.77;;;0.90;;
16393;SDS011;8306;51.128;4.476;2023-03-29T13:23:17;1.53;;;1.20;;
16393;SDS011;8306;51.128;4.476;2023-03-29T13:26:18;1.47;;;1.07;;
16393;SDS011;8306;51.128;4.476;2023-03-29T13:31:26;1.10;;;0.90;;
16393;SDS011;8306;51.128;4.476;2023-03-29T13:33:57;1.13;;;0.93;;
16393;SDS011;8306;51.128;4.476;2023-03-29T13:39:03;1.60;;;1.30;;
16393;SDS011;8306;51.128;4.476;2023-03-29T13:46:47;1.87;;;1.70;;
16393;SDS011;8306;51.128;4.476;2023-03-29T13:49:17;1.63;;;1.50;;
16393;SDS011;8306;51.128;4.476;2023-03-29T13:54:38;2.00;;;1.73;;
16393;SDS011;8306;51.128;4.476;2023-03-29T13:59:46;2.67;;;1.63;;
16393;SDS011;8306;51.128;4.476;2023-03-29T14:02:23;1.97;;;1.80;;
16393;SDS011;8306;51.128;4.476;2023-03-29T14:04:37;1.80;;;1.70;;
16393;SDS011;8306;51.128;4.476;2023-03-29T14:07:03;2.57;;;2.27;;
16393;SDS011;8306;51.128;4.476;2023-03-29T14:09:30;2.23;;;2.03;;
16393;SDS011;8306;51.128;4.476;2023-03-29T14:11:57;2.33;;;2.20;;
16393;SDS011;8306;51.128;4.476;2023-03-29T14:14:25;2.97;;;2.10;;
16393;SDS011;8306;51.128;4.476;2023-03-29T14:16:51;3.93;;;2.30;;
16393;SDS011;8306;51.128;4.476;2023-03-29T14:19:20;3.30;;;2.13;;
16393;SDS011;8306;51.128;4.476;2023-03-29T14:21:44;3.03;;;2.33;;
16393;SDS011;8306;51.128;4.476;2023-03-29T14:24:12;2.90;;;2.10;;
16393;SDS011;8306;51.128;4.476;2023-03-29T14:26:37;2.40;;;2.20;;
16393;SDS011;8306;51.128;4.476;2023-03-29T14:29:05;2.00;;;1.80;;
16393;SDS011;8306;51.128;4.476;2023-03-29T14:31:31;2.30;;;1.70;;
16393;SDS011;8306;51.128;4.476;2023-03-29T14:34:00;2.90;;;2.07;;
16393;SDS011;8306;51.128;4.476;2023-03-29T14:36:23;2.23;;;2.03;;
16393;SDS011;8306;51.128;4.476;2023-03-29T14:38:51;2.30;;;2.10;;
16393;SDS011;8306;51.128;4.476;2023-03-29T14:41:16;2.30;;;1.93;;
16393;SDS011;8306;51.128;4.476;2023-03-29T14:43:43;2.70;;;1.90;;
16393;SDS011;8306;51.128;4.476;2023-03-29T14:46:09;2.40;;;1.90;;
16393;SDS011;8306;51.128;4.476;2023-03-29T14:48:35;2.80;;;2.30;;
16393;SDS011;8306;51.128;4.476;2023-03-29T14:51:02;2.10;;;2.00;;
16393;SDS011;8306;51.128;4.476;2023-03-29T14:53:28;2.13;;;1.93;;
16393;SDS011;8306;51.128;4.476;2023-03-29T14:55:55;2.50;;;1.90;;
16393;SDS011;8306;51.128;4.476;2023-03-29T14:58:22;3.10;;;2.13;;
16393;SDS011;8306;51.128;4.476;2023-03-29T15:00:49;3.63;;;3.00;;
16393;SDS011;8306;51.128;4.476;2023-03-29T15:03:14;2.40;;;2.20;;
16393;SDS011;8306;51.128;4.476;2023-03-29T15:05:41;2.73;;;2.53;;
16393;SDS011;8306;51.128;4.476;2023-03-29T15:08:11;2.13;;;2.00;;
16393;SDS011;8306;51.128;4.476;2023-03-29T15:10:34;2.10;;;1.90;;
16393;SDS011;8306;51.128;4.476;2023-03-29T15:13:00;2.33;;;2.13;;
16393;SDS011;8306;51.128;4.476;2023-03-29T15:15:27;2.17;;;2.00;;
16393;SDS011;8306;51.128;4.476;2023-03-29T15:17:53;2.93;;;2.10;;
16393;SDS011;8306;51.128;4.476;2023-03-29T15:20:21;2.77;;;2.10;;
16393;SDS011;8306;51.128;4.476;2023-03-29T15:22:55;2.87;;;2.67;;
16393;SDS011;8306;51.128;4.476;2023-03-29T15:25:31;3.73;;;2.13;;
16393;SDS011;8306;51.128;4.476;2023-03-29T15:27:54;5.40;;;2.60;;
16393;SDS011;8306;51.128;4.476;2023-03-29T15:30:20;3.60;;;2.80;;
16393;SDS011;8306;51.128;4.476;2023-03-29T15:32:46;7.40;;;2.23;;
16393;SDS011;8306;51.128;4.476;2023-03-29T15:35:22;2.63;;;2.40;;
16393;SDS011;8306;51.128;4.476;2023-03-29T15:37:48;2.10;;;2.00;;
16393;SDS011;8306;51.128;4.476;2023-03-29T15:40:15;3.20;;;2.20;;
16393;SDS011;8306;51.128;4.476;2023-03-29T15:42:41;2.77;;;2.30;;
16393;SDS011;8306;51.128;4.476;2023-03-29T15:45:14;3.27;;;2.00;;
16393;SDS011;8306;51.128;4.476;2023-03-29T15:47:42;2.23;;;1.97;;
16393;SDS011;8306;51.128;4.476;2023-03-29T15:50:09;3.17;;;2.00;;
16393;SDS011;8306;51.128;4.476;2023-03-29T15:52:36;3.10;;;2.17;;
16393;SDS011;8306;51.128;4.476;2023-03-29T15:55:02;2.57;;;2.13;;
16393;SDS011;8306;51.128;4.476;2023-03-29T15:57:28;2.50;;;2.30;;
16393;SDS011;8306;51.128;4.476;2023-03-29T15:59:55;2.50;;;2.10;;
16393;SDS011;8306;51.128;4.476;2023-03-29T16:02:22;2.73;;;2.20;;
16393;SDS011;8306;51.128;4.476;2023-03-29T16:04:48;2.73;;;2.50;;
16393;SDS011;8306;51.128;4.476;2023-03-29T16:07:15;3.27;;;2.90;;
16393;SDS011;8306;51.128;4.476;2023-03-29T16:09:41;3.07;;;2.33;;
16393;SDS011;8306;51.128;4.476;2023-03-29T16:12:08;3.30;;;2.20;;
16393;SDS011;8306;51.128;4.476;2023-03-29T16:14:34;2.40;;;2.20;;
16393;SDS011;8306;51.128;4.476;2023-03-29T16:17:00;3.17;;;2.60;;
16393;SDS011;8306;51.128;4.476;2023-03-29T16:19:27;3.63;;;2.43;;
16393;SDS011;8306;51.128;4.476;2023-03-29T16:21:53;2.70;;;2.20;;
16393;SDS011;8306;51.128;4.476;2023-03-29T16:24:21;2.80;;;2.43;;
16393;SDS011;8306;51.128;4.476;2023-03-29T16:26:46;2.80;;;2.50;;
16393;SDS011;8306;51.128;4.476;2023-03-29T16:29:13;3.57;;;2.70;;
16393;SDS011;8306;51.128;4.476;2023-03-29T16:31:39;5.00;;;2.70;;
16393;SDS011;8306;51.128;4.476;2023-03-29T16:34:06;2.87;;;2.20;;
16393;SDS011;8306;51.128;4.476;2023-03-29T16:36:32;2.80;;;2.20;;
16393;SDS011;8306;51.128;4.476;2023-03-29T16:38:58;4.37;;;2.63;;